createdAt,value
2019-06-10T00:00:50.838Z,48.20
2019-06-10T00:02:28.033Z,48.50
2019-06-10T00:04:07.990Z,48.30
2019-06-10T00:05:41.850Z,48.50
2019-06-10T00:07:20.978Z,48.60
2019-06-10T00:08:58.056Z,48.60
2019-06-10T00:10:33.719Z,49.20
2019-06-10T00:12:12.643Z,48.70
2019-06-10T00:13:47.375Z,48.70
2019-06-10T00:15:23.722Z,48.60
2019-06-10T00:17:01.524Z,48.70
2019-06-10T00:18:42.196Z,48.80
2019-06-10T00:20:14.970Z,48.90
2019-06-10T00:21:51.297Z,48.90
2019-06-10T00:23:26.853Z,49.20
2019-06-10T00:25:05.346Z,49.30
2019-06-10T00:26:41.320Z,49.30
2019-06-10T00:28:17.746Z,48.90
2019-06-10T00:29:53.317Z,49.50
2019-06-10T00:31:31.301Z,49.60
2019-06-10T00:33:08.047Z,49.50
2019-06-10T00:34:44.931Z,49.80
2019-06-10T00:36:21.584Z,49.70
2019-06-10T00:37:59.574Z,49.70
2019-06-10T00:39:35.419Z,49.80
2019-06-10T00:41:14.048Z,50.00
2019-06-10T00:42:50.719Z,49.80
2019-06-10T00:44:27.230Z,49.90
2019-06-10T00:46:05.743Z,50.00
2019-06-10T00:47:42.111Z,50.20
2019-06-10T00:49:17.652Z,49.90
2019-06-10T00:50:54.014Z,50.00
2019-06-10T00:52:30.838Z,50.00
2019-06-10T00:54:10.317Z,50.10
2019-06-10T00:55:46.099Z,50.00
2019-06-10T00:57:22.501Z,50.10
2019-06-10T00:59:00.580Z,50.10
2019-06-10T01:00:36.084Z,50.20
2019-06-10T01:02:14.027Z,50.10
2019-06-10T01:03:50.904Z,50.20
2019-06-10T01:05:27.562Z,50.20
2019-06-10T01:07:04.388Z,50.10
2019-06-10T01:08:40.596Z,50.20
2019-06-10T01:10:17.758Z,50.30
2019-06-10T01:11:53.305Z,50.30
2019-06-10T01:13:31.012Z,50.30
2019-06-10T01:15:07.518Z,50.40
2019-06-10T01:16:43.857Z,50.30
2019-06-10T01:18:34.997Z,50.30
2019-06-10T01:20:01.356Z,50.40
2019-06-10T01:21:37.463Z,50.40
2019-06-10T01:23:15.663Z,50.50
2019-06-10T01:24:51.278Z,50.50
2019-06-10T01:26:30.838Z,50.40
2019-06-10T01:28:05.849Z,50.40
2019-06-10T01:29:42.197Z,50.50
2019-06-10T01:31:21.611Z,50.50
2019-06-10T01:32:55.800Z,50.60
2019-06-10T01:34:31.355Z,50.60
2019-06-10T01:36:07.702Z,50.60
2019-06-10T01:37:43.244Z,50.60
2019-06-10T01:39:19.586Z,50.70
2019-06-10T01:40:55.149Z,50.70
2019-06-10T01:42:31.841Z,50.70
2019-06-10T01:44:08.477Z,50.90
2019-06-10T01:45:44.941Z,50.80
2019-06-10T01:47:21.622Z,50.90
2019-06-10T01:48:58.071Z,51.00
2019-06-10T01:50:33.634Z,50.90
2019-06-10T01:52:12.381Z,51.70
2019-06-10T01:53:51.015Z,51.20
2019-06-10T01:55:26.378Z,51.40
2019-06-10T01:57:01.943Z,51.10
2019-06-10T01:58:40.542Z,51.20
2019-06-10T02:00:22.078Z,51.20
2019-06-10T02:01:55.118Z,51.20
2019-06-10T02:03:31.705Z,51.30
2019-06-10T02:05:12.603Z,51.20
2019-06-10T02:06:47.683Z,51.20
2019-06-10T02:08:23.232Z,51.40
2019-06-10T02:10:01.121Z,51.30
2019-06-10T02:11:37.626Z,51.30
2019-06-10T02:13:33.019Z,51.40
2019-06-10T02:15:12.540Z,51.40
2019-06-10T02:16:47.754Z,51.20
2019-06-10T02:18:24.104Z,51.30
2019-06-10T02:20:01.250Z,51.40
2019-06-10T02:21:37.743Z,51.40
2019-06-10T02:23:14.436Z,51.50
2019-06-10T02:24:51.354Z,51.40
2019-06-10T02:26:26.913Z,51.40
2019-06-10T02:28:03.246Z,51.50
2019-06-10T02:29:41.110Z,51.50
2019-06-10T02:31:21.543Z,51.50
2019-06-10T02:32:54.102Z,51.50
2019-06-10T02:34:36.659Z,51.70
2019-06-10T02:36:09.101Z,51.60
2019-06-10T02:37:45.436Z,51.70
2019-06-10T02:39:28.044Z,51.70
2019-06-10T02:40:59.097Z,51.70
2019-06-10T02:42:43.693Z,51.60
2019-06-10T02:44:26.299Z,51.60
2019-06-10T02:45:57.497Z,51.70
2019-06-10T02:47:38.030Z,51.70
2019-06-10T02:49:26.472Z,51.70
2019-06-10T02:50:55.681Z,51.80
2019-06-10T02:52:38.210Z,51.70
2019-06-10T02:54:13.397Z,51.70
2019-06-10T02:55:48.654Z,51.70
2019-06-10T02:57:30.455Z,51.90
2019-06-10T02:59:03.587Z,51.90
2019-06-10T03:00:47.228Z,51.90
2019-06-10T03:02:18.252Z,52.10
2019-06-10T03:03:54.623Z,52.10
2019-06-10T03:05:40.317Z,52.30
2019-06-10T03:07:08.287Z,52.20
2019-06-10T03:08:44.692Z,52.30
2019-06-10T03:10:22.689Z,52.20
2019-06-10T03:11:58.554Z,52.40
2019-06-10T03:13:35.074Z,52.40
2019-06-10T03:15:12.603Z,52.40
2019-06-10T03:16:49.960Z,52.50
2019-06-10T03:18:26.291Z,52.60
2019-06-10T03:20:02.467Z,52.60
2019-06-10T03:21:38.914Z,52.80
2019-06-10T03:23:14.488Z,52.70
2019-06-10T03:24:52.372Z,52.70
2019-06-10T03:26:28.934Z,52.70
2019-06-10T03:28:06.249Z,52.60
2019-06-10T03:29:42.167Z,52.70
2019-06-10T03:31:20.573Z,52.50
2019-06-10T03:32:55.853Z,52.60
2019-06-10T03:34:40.473Z,52.50
2019-06-10T03:36:12.441Z,52.60
2019-06-10T03:37:49.432Z,52.50
2019-06-10T03:39:26.886Z,52.50
2019-06-10T03:41:03.512Z,52.50
2019-06-10T03:42:39.031Z,52.60
2019-06-10T03:44:15.366Z,52.50
2019-06-10T03:45:53.053Z,52.40
2019-06-10T03:47:29.023Z,52.60
2019-06-10T03:49:04.723Z,52.60
2019-06-10T03:50:43.091Z,52.50
2019-06-10T03:52:19.279Z,52.50
2019-06-10T03:53:56.026Z,52.50
2019-06-10T03:55:33.193Z,52.50
2019-06-10T03:57:11.944Z,52.50
2019-06-10T03:58:46.900Z,52.40
2019-06-10T04:00:24.506Z,52.40
2019-06-10T04:02:02.335Z,52.40
2019-06-10T04:03:38.952Z,52.30
2019-06-10T04:05:14.566Z,52.30
2019-06-10T04:06:53.116Z,52.20
2019-06-10T04:08:28.246Z,52.30
2019-06-10T04:10:06.560Z,52.30
2019-06-10T04:11:43.140Z,52.30
2019-06-10T04:13:19.683Z,52.20
2019-06-10T04:14:55.236Z,52.80
2019-06-10T04:16:32.763Z,52.20
2019-06-10T04:18:08.523Z,52.20
2019-06-10T04:19:45.820Z,52.20
2019-06-10T04:21:22.734Z,52.10
2019-06-10T04:22:59.438Z,52.10
2019-06-10T04:24:35.347Z,52.10
2019-06-10T04:26:12.856Z,52.10
2019-06-10T04:27:48.543Z,52.00
2019-06-10T04:29:26.149Z,52.00
2019-06-10T04:31:02.778Z,52.00
2019-06-10T04:32:39.291Z,52.10
2019-06-10T04:34:14.856Z,52.00
2019-06-10T04:35:51.994Z,52.10
2019-06-10T04:37:29.549Z,52.00
2019-06-10T04:39:08.417Z,52.00
2019-06-10T04:40:43.965Z,52.00
2019-06-10T04:42:22.567Z,52.00
2019-06-10T04:43:58.638Z,51.80
2019-06-10T04:45:34.984Z,52.00
2019-06-10T04:47:12.106Z,51.90
2019-06-10T04:48:48.517Z,52.00
2019-06-10T04:50:33.091Z,51.90
2019-06-10T04:52:03.009Z,52.00
2019-06-10T04:53:40.370Z,51.90
2019-06-10T04:55:18.806Z,51.90
2019-06-10T04:56:55.137Z,52.00
2019-06-10T04:58:33.374Z,51.90
2019-06-10T05:00:13.816Z,51.80
2019-06-10T05:01:49.309Z,51.90
2019-06-10T05:03:26.551Z,51.90
2019-06-10T05:05:03.210Z,52.00
2019-06-10T05:06:38.831Z,51.90
2019-06-10T05:08:15.171Z,52.00
2019-06-10T05:09:52.515Z,52.00
2019-06-10T05:11:30.171Z,52.10
2019-06-10T05:13:06.347Z,52.10
2019-06-10T05:14:43.364Z,52.20
2019-06-10T05:16:23.422Z,52.80
2019-06-10T05:17:58.065Z,52.30
2019-06-10T05:19:33.909Z,52.20
2019-06-10T05:21:12.837Z,52.10
2019-06-10T05:22:47.615Z,52.10
2019-06-10T05:24:26.890Z,52.10
2019-06-10T05:26:02.700Z,52.00
2019-06-10T05:27:39.454Z,51.80
2019-06-10T05:29:15.023Z,51.80
2019-06-10T05:30:53.174Z,51.70
2019-06-10T05:32:31.172Z,51.60
2019-06-10T05:34:07.946Z,51.60
2019-06-10T05:35:43.801Z,51.40
2019-06-10T05:37:21.293Z,51.30
2019-06-10T05:38:57.453Z,51.20
2019-06-10T05:40:34.288Z,51.30
2019-06-10T05:42:12.591Z,51.00
2019-06-10T05:43:48.032Z,50.90
2019-06-10T05:45:25.876Z,50.20
2019-06-10T05:47:03.644Z,49.90
2019-06-10T05:48:38.892Z,49.50
2019-06-10T05:50:15.470Z,49.20
2019-06-10T05:51:52.690Z,49.10
2019-06-10T05:53:29.269Z,48.60
2019-06-10T05:55:05.309Z,48.40
2019-06-10T05:56:43.296Z,48.10
2019-06-10T05:58:19.067Z,47.60
2019-06-10T05:59:55.436Z,47.10
2019-06-10T06:01:36.288Z,46.90
2019-06-10T06:03:09.001Z,46.70
2019-06-10T06:04:44.586Z,45.90
2019-06-10T06:06:23.008Z,45.80
2019-06-10T06:08:04.882Z,45.30
2019-06-10T06:09:36.207Z,45.40
2019-06-10T06:11:12.604Z,45.00
2019-06-10T06:12:49.620Z,44.50
2019-06-10T06:14:25.469Z,44.40
2019-06-10T06:16:03.335Z,44.20
2019-06-10T06:17:40.091Z,44.00
2019-06-10T06:19:16.446Z,44.10
2019-06-10T06:20:52.605Z,43.80
2019-06-10T06:22:29.504Z,43.00
2019-06-10T06:24:05.108Z,42.80
2019-06-10T06:25:44.377Z,42.60
2019-06-10T06:27:18.701Z,42.60
2019-06-10T06:28:55.109Z,42.30
2019-06-10T06:30:32.800Z,42.10
2019-06-10T06:32:08.874Z,42.10
2019-06-10T06:33:45.476Z,42.10
2019-06-10T06:35:22.724Z,42.20
2019-06-10T06:36:58.371Z,41.90
2019-06-10T06:38:36.820Z,41.80
2019-06-10T06:40:15.277Z,41.60
2019-06-10T06:41:52.838Z,41.80
2019-06-10T06:43:30.674Z,41.40
2019-06-10T06:45:08.754Z,41.30
2019-06-10T06:46:44.399Z,41.00
2019-06-10T06:48:22.737Z,40.80
2019-06-10T06:49:57.977Z,40.60
2019-06-10T06:51:47.557Z,40.50
2019-06-10T06:53:25.637Z,40.30
2019-06-10T06:54:49.705Z,39.80
2019-06-10T06:56:26.333Z,39.70
2019-06-10T06:58:03.628Z,39.30
2019-06-10T06:59:40.848Z,39.20
2019-06-10T07:01:17.290Z,38.90
2019-06-10T07:02:53.011Z,38.30
2019-06-10T07:04:29.663Z,37.40
2019-06-10T07:06:06.292Z,37.90
2019-06-10T07:07:43.375Z,38.00
2019-06-10T07:09:22.106Z,37.80
2019-06-10T07:11:02.735Z,37.50
2019-06-10T07:12:39.406Z,37.70
2019-06-10T07:14:15.883Z,38.20
2019-06-10T07:15:53.465Z,37.60
2019-06-10T07:17:29.552Z,37.60
2019-06-10T07:19:05.178Z,37.20
2019-06-10T07:20:45.364Z,36.70
2019-06-10T07:22:19.013Z,36.30
2019-06-10T07:23:55.358Z,36.10
2019-06-10T07:25:34.131Z,36.50
2019-06-10T07:27:08.960Z,36.00
2019-06-10T07:28:47.468Z,35.00
2019-06-10T07:30:23.603Z,35.30
2019-06-10T07:31:59.165Z,35.30
2019-06-10T07:33:39.001Z,35.20
2019-06-10T07:35:13.088Z,35.30
2019-06-10T07:36:49.457Z,35.10
2019-06-10T07:38:26.352Z,35.20
2019-06-10T07:40:03.163Z,34.90
2019-06-10T07:41:39.334Z,35.50
2019-06-10T07:43:15.702Z,35.50
2019-06-10T07:44:53.293Z,35.80
2019-06-10T07:46:29.279Z,35.10
2019-06-10T07:48:04.845Z,35.30
2019-06-10T07:49:43.579Z,35.30
2019-06-10T07:51:22.511Z,34.80
2019-06-10T07:52:56.499Z,34.60
2019-06-10T07:54:33.301Z,34.40
2019-06-10T07:56:12.632Z,34.30
2019-06-10T07:57:47.365Z,34.00
2019-06-10T07:59:24.055Z,34.60
2019-06-10T08:01:02.421Z,35.20
2019-06-10T08:02:37.716Z,34.20
2019-06-10T08:04:13.303Z,34.60
2019-06-10T08:05:52.379Z,34.50
2019-06-10T08:07:28.238Z,35.40
2019-06-10T08:09:05.845Z,35.10
2019-06-10T08:10:44.746Z,35.40
2019-06-10T08:12:19.514Z,34.90
2019-06-10T08:13:55.071Z,34.50
2019-06-10T08:15:32.510Z,34.20
2019-06-10T08:17:09.193Z,34.30
2019-06-10T08:19:13.919Z,34.40
2019-06-10T08:20:43.525Z,34.50
2019-06-10T08:22:31.183Z,34.20
2019-06-10T08:23:58.028Z,34.20
2019-06-10T08:25:33.576Z,34.40
2019-06-10T08:27:11.953Z,34.20
2019-06-10T08:28:48.322Z,34.10
2019-06-10T08:30:27.551Z,34.20
2019-06-10T08:32:03.315Z,34.30
2019-06-10T08:33:42.555Z,34.50
2019-06-10T08:35:17.128Z,34.30
2019-06-10T08:36:54.298Z,34.30
2019-06-10T08:38:32.690Z,34.50
2019-06-10T08:40:09.653Z,34.50
2019-06-10T08:41:47.758Z,34.60
2019-06-10T08:43:23.680Z,34.90
2019-06-10T08:45:00.130Z,34.50
2019-06-10T08:46:37.241Z,34.50
2019-06-10T08:48:13.242Z,33.70
2019-06-10T08:49:49.843Z,33.50
2019-06-10T08:51:25.431Z,33.60
2019-06-10T08:53:13.834Z,33.10
2019-06-10T08:54:40.641Z,33.60
2019-06-10T08:56:17.056Z,33.60
2019-06-10T08:57:54.026Z,33.50
2019-06-10T08:59:32.521Z,33.60
2019-06-10T09:01:08.004Z,34.00
2019-06-10T09:02:45.962Z,34.20
2019-06-10T09:04:22.783Z,34.30
2019-06-10T09:05:59.279Z,34.30
2019-06-10T09:07:34.835Z,34.80
2019-06-10T09:09:12.855Z,35.10
2019-06-10T09:10:51.575Z,34.70
2019-06-10T09:12:32.943Z,34.30
2019-06-10T09:14:04.818Z,34.00
2019-06-10T09:15:43.778Z,34.20
2019-06-10T09:17:18.883Z,34.30
2019-06-10T09:18:55.613Z,34.60
2019-06-10T09:20:33.117Z,34.90
2019-06-10T09:22:09.786Z,35.40
2019-06-10T09:23:49.553Z,35.40
2019-06-10T09:25:23.626Z,35.40
2019-06-10T09:26:59.190Z,35.80
2019-06-10T09:28:35.526Z,35.80
2019-06-10T09:30:14.195Z,36.00
2019-06-10T09:31:53.299Z,36.60
2019-06-10T09:33:27.837Z,36.70
2019-06-10T09:35:04.221Z,37.00
2019-06-10T09:36:41.260Z,37.20
2019-06-10T09:38:17.882Z,37.40
2019-06-10T09:39:59.069Z,37.20
2019-06-10T09:41:40.195Z,37.20
2019-06-10T09:43:09.043Z,37.60
2019-06-10T09:44:48.467Z,37.70
2019-06-10T09:46:24.251Z,37.80
2019-06-10T09:48:03.870Z,37.80
2019-06-10T09:49:41.311Z,37.70
2019-06-10T09:51:17.524Z,37.60
2019-06-10T09:52:56.968Z,37.80
2019-06-10T09:54:33.370Z,37.70
2019-06-10T09:56:08.375Z,37.80
2019-06-10T09:57:47.213Z,38.00
2019-06-10T09:59:23.484Z,38.40
2019-06-10T10:01:03.266Z,38.70
2019-06-10T10:02:38.421Z,38.90
2019-06-10T10:04:14.944Z,39.40
2019-06-10T10:05:59.371Z,40.00
2019-06-10T10:07:32.473Z,40.30
2019-06-10T10:09:08.156Z,40.40
2019-06-10T10:10:49.477Z,40.80
2019-06-10T10:12:22.804Z,40.90
2019-06-10T10:13:59.259Z,40.90
2019-06-10T10:15:35.063Z,41.20
2019-06-10T10:17:12.823Z,41.40
2019-06-10T10:18:51.850Z,42.40
2019-06-10T10:20:26.581Z,43.20
2019-06-10T10:22:03.026Z,43.60
2019-06-10T10:23:51.243Z,43.70
2019-06-10T10:25:17.803Z,43.80
2019-06-10T10:26:57.920Z,44.40
2019-06-10T10:28:33.515Z,45.30
2019-06-10T10:30:09.874Z,45.70
2019-06-10T10:31:48.782Z,45.50
2019-06-10T10:33:27.103Z,46.20
2019-06-10T10:35:03.767Z,47.20
2019-06-10T10:36:39.147Z,47.30
2019-06-10T10:38:14.704Z,47.60
2019-06-10T10:39:53.804Z,46.80
2019-06-10T10:41:28.293Z,46.60
2019-06-10T10:43:22.978Z,46.30
2019-06-10T10:44:46.219Z,46.50
2019-06-10T10:46:22.946Z,45.10
2019-06-10T10:47:57.766Z,44.40
2019-06-10T10:49:34.182Z,44.30
2019-06-10T10:51:12.640Z,44.10
2019-06-10T10:52:48.592Z,44.30
2019-06-10T10:54:32.967Z,43.70
2019-06-10T10:56:03.609Z,43.50
2019-06-10T10:57:39.156Z,43.50
2019-06-10T10:59:15.511Z,44.00
2019-06-10T11:00:54.533Z,43.80
2019-06-10T11:02:29.114Z,43.00
2019-06-10T11:04:05.618Z,42.70
2019-06-10T11:05:44.748Z,41.50
2019-06-10T11:07:19.227Z,40.20
2019-06-10T11:08:57.728Z,40.20
2019-06-10T11:10:33.666Z,40.30
2019-06-10T11:12:10.232Z,40.20
2019-06-10T11:13:47.454Z,39.70
2019-06-10T11:15:28.837Z,39.90
2019-06-10T11:17:06.209Z,40.00
2019-06-10T11:18:42.242Z,39.70
2019-06-10T11:20:18.802Z,39.70
2019-06-10T11:21:54.384Z,39.10
2019-06-10T11:23:33.663Z,39.80
2019-06-10T11:25:09.143Z,39.80
2019-06-10T11:26:45.803Z,39.90
2019-06-10T11:28:22.970Z,39.90
2019-06-10T11:29:59.350Z,40.00
2019-06-10T11:31:34.919Z,40.00
2019-06-10T11:33:11.277Z,39.70
2019-06-10T11:34:47.720Z,39.70
2019-06-10T11:36:24.308Z,39.80
2019-06-10T11:38:03.362Z,39.70
2019-06-10T11:39:39.755Z,40.00
2019-06-10T11:41:15.314Z,40.20
2019-06-10T11:42:56.396Z,40.40
2019-06-10T11:44:29.061Z,40.10
2019-06-10T11:46:07.762Z,40.00
2019-06-10T11:47:42.881Z,40.30
2019-06-10T11:49:19.224Z,40.20
2019-06-10T11:50:58.408Z,40.20
2019-06-10T11:52:33.617Z,40.60
2019-06-10T11:54:09.297Z,40.10
2019-06-10T11:55:45.715Z,40.90
2019-06-10T11:57:22.945Z,40.20
2019-06-10T11:59:03.970Z,40.30
2019-06-10T12:00:38.031Z,40.40
2019-06-10T12:02:14.369Z,40.20
2019-06-10T12:03:51.095Z,40.30
2019-06-10T12:05:28.667Z,40.20
2019-06-10T12:07:04.244Z,40.30
2019-06-10T12:08:43.191Z,40.20
2019-06-10T12:10:18.097Z,40.40
2019-06-10T12:11:58.456Z,40.70
2019-06-10T12:13:34.290Z,40.20
2019-06-10T12:15:12.114Z,40.00
2019-06-10T12:17:17.726Z,40.40
2019-06-10T12:18:26.060Z,40.50
2019-06-10T12:20:03.328Z,40.00
2019-06-10T12:21:39.835Z,39.80
2019-06-10T12:23:15.380Z,39.60
2019-06-10T12:25:20.174Z,39.40
2019-06-10T12:26:29.072Z,39.00
2019-06-10T12:28:07.484Z,39.10
2019-06-10T12:29:42.690Z,39.10
2019-06-10T12:31:20.001Z,39.10
2019-06-10T12:32:59.064Z,39.20
2019-06-10T12:34:33.677Z,39.30
2019-06-10T12:36:09.199Z,39.30
2019-06-10T12:37:45.547Z,39.50
2019-06-10T12:39:22.905Z,40.20
2019-06-10T12:41:03.210Z,40.50
2019-06-10T12:42:37.026Z,40.20
2019-06-10T12:44:14.429Z,40.00
2019-06-10T12:45:52.530Z,39.50
2019-06-10T12:47:28.387Z,39.00
2019-06-10T12:49:08.560Z,38.90
2019-06-10T12:50:42.930Z,39.00
2019-06-10T12:52:18.575Z,38.80
2019-06-10T12:53:55.288Z,38.20
2019-06-10T12:55:39.238Z,38.00
2019-06-10T12:59:10.217Z,37.10
2019-06-10T13:00:48.109Z,36.90
2019-06-10T13:02:31.133Z,36.60
2019-06-10T13:04:07.133Z,36.30
2019-06-10T13:05:42.459Z,36.40
2019-06-10T13:07:18.958Z,36.50
2019-06-10T13:08:58.044Z,36.00
2019-06-10T13:10:42.721Z,35.90
2019-06-10T13:12:18.111Z,35.70
2019-06-10T13:13:53.657Z,35.80
2019-06-10T13:15:29.998Z,35.60
2019-06-10T13:17:05.843Z,35.70
2019-06-10T13:18:42.220Z,35.60
2019-06-10T13:20:17.956Z,35.60
2019-06-10T13:21:55.173Z,35.50
2019-06-10T13:23:34.947Z,35.40
2019-06-10T13:25:13.223Z,35.50
2019-06-10T13:26:47.837Z,35.70
2019-06-10T13:28:24.652Z,35.90
2019-06-10T13:30:00.202Z,35.50
2019-06-10T13:31:36.538Z,36.10
2019-06-10T13:33:14.652Z,35.70
2019-06-10T13:34:52.786Z,35.50
2019-06-10T13:36:28.385Z,35.40
2019-06-10T13:38:06.932Z,35.30
2019-06-10T13:39:43.144Z,35.50
2019-06-10T13:41:22.577Z,35.70
2019-06-10T13:42:59.724Z,36.00
2019-06-10T13:44:36.127Z,36.30
2019-06-10T13:46:11.733Z,36.30
2019-06-10T13:47:49.885Z,36.50
2019-06-10T13:49:26.580Z,36.70
2019-06-10T13:51:08.336Z,37.20
2019-06-10T13:52:42.632Z,37.20
2019-06-10T13:54:18.685Z,36.90
2019-06-10T13:56:17.007Z,36.30
2019-06-10T13:57:33.253Z,36.20
2019-06-10T13:59:11.024Z,36.20
2019-06-10T14:00:47.058Z,36.50
2019-06-10T14:02:24.822Z,36.40
2019-06-10T14:04:04.598Z,36.60
2019-06-10T14:05:38.030Z,36.70
2019-06-10T14:07:17.257Z,37.20
2019-06-10T14:08:54.702Z,37.30
2019-06-10T14:10:32.389Z,37.30
2019-06-10T14:12:08.036Z,37.30
2019-06-10T14:13:44.677Z,37.50
2019-06-10T14:15:22.656Z,37.80
2019-06-10T14:16:59.074Z,37.40
2019-06-10T14:18:34.639Z,37.50
2019-06-10T14:20:15.425Z,37.60
2019-06-10T14:21:50.806Z,38.10
2019-06-10T14:23:27.150Z,37.80
2019-06-10T14:25:06.358Z,37.60
2019-06-10T14:26:44.800Z,37.60
2019-06-10T14:28:35.806Z,37.90
2019-06-10T14:29:57.042Z,38.30
2019-06-10T14:31:42.863Z,38.70
2019-06-10T14:33:14.297Z,39.20
2019-06-10T14:34:49.059Z,39.70
2019-06-10T14:36:25.389Z,40.10
2019-06-10T14:38:03.097Z,40.50
2019-06-10T14:39:38.983Z,40.70
2019-06-10T14:41:14.540Z,40.80
2019-06-10T14:42:52.461Z,41.10
2019-06-10T14:44:28.179Z,41.40
2019-06-10T14:46:04.772Z,41.10
2019-06-10T14:47:43.163Z,41.00
2019-06-10T14:49:19.135Z,40.70
2019-06-10T14:50:54.679Z,40.60
2019-06-10T14:52:32.051Z,40.60
2019-06-10T14:54:07.754Z,40.10
2019-06-10T14:55:44.519Z,40.40
2019-06-10T14:57:20.064Z,40.20
2019-06-10T14:58:56.417Z,40.50
2019-06-10T15:00:33.340Z,40.80
2019-06-10T15:02:12.152Z,40.50
2019-06-10T15:03:47.033Z,39.80
2019-06-10T15:05:23.416Z,39.40
2019-06-10T15:06:58.932Z,39.00
2019-06-10T15:08:35.261Z,38.80
2019-06-10T15:10:14.445Z,38.90
2019-06-10T15:11:52.060Z,39.40
2019-06-10T15:13:27.409Z,39.70
2019-06-10T15:15:03.835Z,40.00
2019-06-10T15:16:39.413Z,40.00
2019-06-10T15:18:17.988Z,40.10
2019-06-10T15:19:53.147Z,40.10
2019-06-10T15:21:29.429Z,40.40
2019-06-10T15:23:04.981Z,40.50
2019-06-10T15:24:42.770Z,40.60
2019-06-10T15:26:18.454Z,40.70
2019-06-10T15:27:54.835Z,41.00
2019-06-10T15:29:32.653Z,41.10
2019-06-10T15:31:08.410Z,41.30
2019-06-10T15:32:44.947Z,41.30
2019-06-10T15:34:21.285Z,41.30
2019-06-10T15:35:56.837Z,41.50
2019-06-10T15:37:33.234Z,41.70
2019-06-10T15:39:09.566Z,42.00
2019-06-10T15:40:45.918Z,42.20
2019-06-10T15:42:22.548Z,42.10
2019-06-10T15:44:02.415Z,42.20
2019-06-10T15:45:37.329Z,42.40
2019-06-10T15:47:17.050Z,42.30
2019-06-10T15:48:53.882Z,42.70
2019-06-10T15:50:28.930Z,42.50
2019-06-10T15:52:04.483Z,42.00
2019-06-10T15:53:42.632Z,42.00
2019-06-10T15:55:42.430Z,41.90
2019-06-10T15:56:56.758Z,41.60
2019-06-10T15:58:32.355Z,41.40
2019-06-10T16:00:14.175Z,41.40
2019-06-10T16:01:48.055Z,41.50
2019-06-10T16:03:25.681Z,40.70
2019-06-10T16:05:01.319Z,40.80
2019-06-10T16:06:37.641Z,40.90
2019-06-10T16:08:15.565Z,40.80
2019-06-10T16:09:53.385Z,40.90
2019-06-10T16:11:28.511Z,40.90
2019-06-10T16:13:04.907Z,41.00
2019-06-10T16:14:42.510Z,40.90
2019-06-10T16:16:19.184Z,41.10
2019-06-10T16:17:54.728Z,41.20
2019-06-10T16:19:32.876Z,41.10
2019-06-10T16:21:08.508Z,41.10
2019-06-10T16:22:44.844Z,41.20
2019-06-10T16:24:23.761Z,41.50
2019-06-10T16:25:58.430Z,41.60
2019-06-10T16:27:47.338Z,41.60
2019-06-10T16:29:12.398Z,41.40
2019-06-10T16:30:48.552Z,41.40
2019-06-10T16:32:26.419Z,41.40
2019-06-10T16:34:04.277Z,41.50
2019-06-10T16:35:40.154Z,41.50
2019-06-10T16:37:17.068Z,41.50
2019-06-10T16:38:54.414Z,41.40
2019-06-10T16:40:32.367Z,41.70
2019-06-10T16:42:08.126Z,42.00
2019-06-10T16:43:43.683Z,42.60
2019-06-10T16:45:26.623Z,42.20
2019-06-10T16:46:57.328Z,41.60
2019-06-10T16:48:33.905Z,41.60
2019-06-10T16:50:12.052Z,41.70
2019-06-10T16:51:47.936Z,41.90
2019-06-10T16:53:28.461Z,41.90
2019-06-10T16:55:02.272Z,42.10
2019-06-10T16:56:37.944Z,41.80
2019-06-10T16:58:14.289Z,41.60
2019-06-10T16:59:51.959Z,41.30
2019-06-10T17:01:30.083Z,41.40
2019-06-10T17:03:05.885Z,41.40
2019-06-10T17:04:43.558Z,41.30
2019-06-10T17:06:22.429Z,40.90
2019-06-10T17:07:58.262Z,40.90
2019-06-10T17:09:33.816Z,40.20
2019-06-10T17:11:12.344Z,40.20
2019-06-10T17:12:49.101Z,39.20
2019-06-10T17:14:27.448Z,39.00
2019-06-10T17:16:03.633Z,39.10
2019-06-10T17:17:40.434Z,39.00
2019-06-10T17:19:15.987Z,38.80
2019-06-10T17:20:53.550Z,38.70
2019-06-10T17:22:30.966Z,39.00
2019-06-10T17:24:07.324Z,39.00
2019-06-10T17:25:43.128Z,38.70
2019-06-10T17:27:22.268Z,38.90
2019-06-10T17:28:57.020Z,39.30
2019-06-10T17:30:34.744Z,39.50
2019-06-10T17:32:10.377Z,39.80
2019-06-10T17:33:46.702Z,40.10
2019-06-10T17:35:22.513Z,40.20
2019-06-10T17:36:58.845Z,40.30
2019-06-10T17:38:34.433Z,40.40
2019-06-10T17:40:12.958Z,40.40
2019-06-10T17:41:48.588Z,40.30
2019-06-10T17:43:25.255Z,40.60
2019-06-10T17:45:02.508Z,40.70
2019-06-10T17:46:38.980Z,40.80
2019-06-10T17:48:14.540Z,40.80
2019-06-10T17:49:50.969Z,40.80
2019-06-10T17:51:28.161Z,40.70
2019-06-10T17:53:05.090Z,40.50
2019-06-10T17:54:41.783Z,40.70
2019-06-10T17:56:19.106Z,40.80
2019-06-10T17:57:54.666Z,40.80
2019-06-10T17:59:33.589Z,40.70
2019-06-10T18:01:08.681Z,40.70
2019-06-10T18:02:45.018Z,40.80
2019-06-10T18:04:22.581Z,40.60
2019-06-10T18:05:58.645Z,40.80
2019-06-10T18:07:35.766Z,41.00
2019-06-10T18:09:12.459Z,40.80
2019-06-10T18:10:48.296Z,40.80
2019-06-10T18:12:25.565Z,41.00
2019-06-10T18:14:02.655Z,41.20
2019-06-10T18:15:39.094Z,41.30
2019-06-10T18:17:14.652Z,41.50
2019-06-10T18:18:52.443Z,41.90
2019-06-10T18:20:28.835Z,42.10
2019-06-10T18:22:05.253Z,42.20
2019-06-10T18:23:43.483Z,42.60
2019-06-10T18:25:19.414Z,42.90
2019-06-10T18:26:54.976Z,43.10
2019-06-10T18:28:33.769Z,43.10
2019-06-10T18:30:13.507Z,43.30
2019-06-10T18:31:48.294Z,43.30
2019-06-10T18:33:23.835Z,43.40
2019-06-10T18:35:02.956Z,43.60
2019-06-10T18:36:38.683Z,43.70
2019-06-10T18:38:15.032Z,43.80
2019-06-10T18:39:52.188Z,44.00
2019-06-10T18:41:28.615Z,44.10
2019-06-10T18:43:05.145Z,44.10
2019-06-10T18:44:41.493Z,44.30
2019-06-10T18:46:17.148Z,44.70
2019-06-10T18:47:53.567Z,45.00
2019-06-10T18:49:30.033Z,45.10
2019-06-10T18:51:06.721Z,45.20
2019-06-10T18:52:43.362Z,45.30
2019-06-10T18:54:22.407Z,45.40
2019-06-10T18:55:57.825Z,45.80
2019-06-10T18:57:36.176Z,45.90
2019-06-10T18:59:19.567Z,45.90
2019-06-10T19:01:00.617Z,46.00
2019-06-10T19:02:28.308Z,46.00
2019-06-10T19:04:04.669Z,45.90
2019-06-10T19:05:42.100Z,46.00
2019-06-10T19:07:18.500Z,46.20
2019-06-10T19:08:54.168Z,46.40
2019-06-10T19:10:31.684Z,46.50
2019-06-10T19:12:07.839Z,46.60
2019-06-10T19:13:44.150Z,46.80
2019-06-10T19:15:19.789Z,46.80
2019-06-10T19:16:56.119Z,46.90
2019-06-10T19:18:31.959Z,46.90
2019-06-10T19:20:09.091Z,47.00
2019-06-10T19:21:44.814Z,47.20
2019-06-10T19:23:22.715Z,47.30
2019-06-10T19:24:58.586Z,47.50
2019-06-10T19:26:37.350Z,47.40
2019-06-10T19:28:12.464Z,47.50
2019-06-10T19:29:51.406Z,47.30
2019-06-10T19:31:26.382Z,47.30
2019-06-10T19:33:02.774Z,47.20
2019-06-10T19:34:39.448Z,47.30
2019-06-10T19:36:15.748Z,47.40
2019-06-10T19:37:51.301Z,47.60
2019-06-10T19:39:28.878Z,47.70
2019-06-10T19:41:04.435Z,48.00
2019-06-10T19:42:43.395Z,48.00
2019-06-10T19:44:18.372Z,48.30
2019-06-10T19:45:54.707Z,48.60
2019-06-10T19:47:32.648Z,48.60
2019-06-10T19:49:08.301Z,48.70
2019-06-10T19:50:50.183Z,48.70
2019-06-10T19:52:23.376Z,48.90
2019-06-10T19:54:00.187Z,48.60
2019-06-10T19:55:36.975Z,48.70
2019-06-10T19:57:12.961Z,48.90
2019-06-10T19:58:49.393Z,49.10
2019-06-10T20:00:25.200Z,48.90
2019-06-10T20:02:03.404Z,48.90
2019-06-10T20:03:39.685Z,49.00
2019-06-10T20:05:16.997Z,48.90
2019-06-10T20:06:53.767Z,49.00
2019-06-10T20:08:30.260Z,49.20
2019-06-10T20:10:09.008Z,49.50
2019-06-10T20:11:47.293Z,49.60
2019-06-10T20:13:23.251Z,49.80
2019-06-10T20:15:02.116Z,50.10
2019-06-10T20:16:37.829Z,50.10
2019-06-10T20:18:14.222Z,50.30
2019-06-10T20:19:49.825Z,50.60
2019-06-10T20:21:26.153Z,50.70
2019-06-10T20:23:03.134Z,50.70
2019-06-10T20:24:41.334Z,50.80
2019-06-10T20:26:16.939Z,51.00
2019-06-10T20:27:53.274Z,50.90
2019-06-10T20:29:29.099Z,51.20
2019-06-10T20:31:05.422Z,51.20
2019-06-10T20:32:45.546Z,51.30
2019-06-10T20:34:19.661Z,51.40
2019-06-10T20:35:55.938Z,51.00
2019-06-10T20:37:32.674Z,53.50
2019-06-10T20:39:09.617Z,54.60
2019-06-10T20:40:47.148Z,54.30
2019-06-10T20:42:23.257Z,54.00
2019-06-10T20:43:59.760Z,54.20
2019-06-10T20:45:37.504Z,54.80
2019-06-10T20:47:14.292Z,54.70
2019-06-10T20:48:51.963Z,54.20
2019-06-10T20:50:27.882Z,54.60